Time;durP1;ratioP1;P1;durP2;ratioP2;P2;SDS_P1;SDS_P2;PMS_P1;PMS_P2;Temp;Humidity;BMP_temperature;BMP_pressure;BME280_temperature;BME280_humidity;BME280_pressure;Samples;Min_cycle;Max_cycle;Signal;HPM_P1;HPM_P2
2022/11/24 00:03:47;;;;;;;15.02;3.08;;;;;;;6.72;100.00;100021.09;10412907;28;20056;-75
2022/11/24 00:08:53;;;;;;;7.75;2.60;;;;;;;6.74;100.00;100014.09;10412663;28;20513;-70
2022/11/24 00:13:55;;;;;;;7.78;2.30;;;;;;;6.66;100.00;100014.41;10413290;28;20064;-75
2022/11/24 00:19:00;;;;;;;8.73;2.55;;;;;;;6.62;100.00;100025.81;10412888;28;20496;-73
2022/11/24 00:24:03;;;;;;;17.08;3.00;;;;;;;6.52;100.00;100027.91;10410173;28;20058;-73
2022/11/24 00:29:09;;;;;;;10.25;2.80;;;;;;;6.57;100.00;100030.34;10411996;28;20049;-73
2022/11/24 00:34:13;;;;;;;16.30;2.45;;;;;;;6.55;100.00;100038.19;10412169;28;20062;-73
2022/11/24 00:39:16;;;;;;;14.80;2.65;;;;;;;6.56;100.00;100041.59;10412216;28;20042;-71
2022/11/24 00:44:18;;;;;;;15.95;2.72;;;;;;;6.54;100.00;100040.81;10411955;28;20057;-72
2022/11/24 00:49:20;;;;;;;6.03;1.92;;;;;;;6.56;100.00;100049.38;10412718;28;20060;-72
2022/11/24 00:54:24;;;;;;;7.70;2.15;;;;;;;6.68;100.00;100043.69;10410987;28;20492;-71
2022/11/24 00:59:27;;;;;;;8.70;2.70;;;;;;;6.60;100.00;100045.75;10423917;28;20049;-70
2022/11/24 01:04:29;;;;;;;7.95;2.92;;;;;;;6.55;100.00;100064.09;10421543;28;20060;-74
2022/11/24 01:09:34;;;;;;;8.50;2.50;;;;;;;6.63;100.00;100065.53;10419934;28;20049;-71
2022/11/24 01:14:36;;;;;;;7.13;2.10;;;;;;;6.75;100.00;100074.59;10419526;28;20515;-75
2022/11/24 01:19:38;;;;;;;12.45;2.80;;;;;;;6.61;100.00;100068.22;10417033;28;20050;-69
2022/11/24 01:24:41;;;;;;;8.77;2.63;;;;;;;6.58;100.00;100081.28;10419123;28;20054;-70
2022/11/24 01:29:44;;;;;;;6.03;1.75;;;;;;;6.52;100.00;100076.31;10418439;28;20052;-73
2022/11/24 01:34:46;;;;;;;8.30;2.47;;;;;;;6.54;100.00;100084.88;10419390;28;20067;-70
2022/11/24 01:39:49;;;;;;;13.43;2.45;;;;;;;6.42;100.00;100081.84;10418478;28;20056;-72
2022/11/24 01:45:33;;;;;;;182.48;72.28;;;;;;;6.47;100.00;100091.22;10418371;28;20061;-73
2022/11/24 01:50:36;;;;;;;6.15;2.28;;;;;;;6.45;100.00;100099.03;10415643;28;20055;-71
2022/11/24 01:55:41;;;;;;;13.07;2.97;;;;;;;6.46;100.00;100095.53;10417877;28;20052;-71
2022/11/24 02:00:45;;;;;;;3.70;2.30;;;;;;;6.52;100.00;100102.22;10417424;28;20093;-75
2022/11/24 02:05:55;;;;;;;8.70;2.65;;;;;;;6.55;100.00;100109.91;10417834;28;20397;-70
2022/11/24 02:10:58;;;;;;;16.42;2.92;;;;;;;6.46;100.00;100115.44;10417073;28;20060;-70
2022/11/24 02:16:02;;;;;;;4.57;1.67;;;;;;;6.50;100.00;100119.63;10416691;28;20045;-73
2022/11/24 02:21:05;;;;;;;9.90;3.00;;;;;;;6.57;100.00;100128.84;10414475;28;20049;-70
2022/11/24 02:26:21;;;;;;;14.45;2.90;;;;;;;6.63;100.00;100126.03;10416715;28;20489;-73
2022/11/24 02:31:24;;;;;;;14.93;2.60;;;;;;;6.68;100.00;100125.84;10417061;28;20046;-70
2022/11/24 02:36:26;;;;;;;14.65;2.55;;;;;;;6.63;100.00;100128.59;10416079;28;20084;-71
2022/11/24 02:41:29;;;;;;;9.93;2.50;;;;;;;6.67;100.00;100134.53;10416129;28;20045;-70
2022/11/24 02:46:32;;;;;;;11.43;3.20;;;;;;;6.78;100.00;100134.13;10416034;28;20049;-73
2022/11/24 02:51:34;;;;;;;13.25;3.33;;;;;;;6.86;100.00;100139.88;10413746;28;20503;-75
2022/11/24 02:56:36;;;;;;;14.18;2.97;;;;;;;6.92;100.00;100143.97;10415520;28;20053;-71
2022/11/24 03:01:40;;;;;;;11.65;2.38;;;;;;;6.98;100.00;100145.50;10415266;28;20057;-72
2022/11/24 03:06:43;;;;;;;13.40;3.00;;;;;;;7.06;100.00;100139.09;10415308;28;20047;-69
2022/11/24 03:11:44;;;;;;;;;;;;;;;7.04;100.00;100160.81;10416271;28;20045;-70
2022/11/24 03:16:47;;;;;;;18.02;3.05;;;;;;;7.09;100.00;100156.31;10414669;28;20542;-72
2022/11/24 03:21:50;;;;;;;15.57;3.55;;;;;;;7.12;100.00;100161.34;10411948;28;20083;-69
2022/11/24 03:26:51;;;;;;;19.13;3.40;;;;;;;7.16;100.00;100168.13;10414716;28;20082;-74
2022/11/24 03:31:55;;;;;;;12.70;3.72;;;;;;;7.22;100.00;100167.88;10413946;28;20490;-72
2022/11/24 03:36:57;;;;;;;19.10;4.10;;;;;;;7.31;100.00;100165.81;10413550;28;20049;-74
2022/11/24 03:41:59;;;;;;;15.30;3.38;;;;;;;7.26;100.00;100167.75;10413614;28;20068;-74
2022/11/24 03:47:03;;;;;;;20.30;3.13;;;;;;;7.29;100.00;100162.47;10413533;28;20055;-73
2022/11/24 03:52:06;;;;;;;18.85;3.58;;;;;;;7.32;100.00;100167.50;10411197;28;20056;-71
2022/11/24 03:57:08;;;;;;;21.45;3.28;;;;;;;7.39;100.00;100170.72;10413390;28;20095;-74
2022/11/24 04:02:11;;;;;;;14.85;2.85;;;;;;;7.41;100.00;100177.53;10412873;28;20516;-68
2022/11/24 04:07:13;;;;;;;14.48;3.67;;;;;;;7.37;100.00;100165.59;10412823;28;20050;-67
2022/11/24 04:17:35;;;;;;;14.38;3.33;;;;;;;7.39;100.00;100200.09;10412849;28;20049;-69
2022/11/24 04:22:37;;;;;;;15.48;3.83;;;;;;;7.41;100.00;100213.03;10409880;28;20093;-68
2022/11/24 04:27:40;;;;;;;10.15;2.97;;;;;;;7.31;100.00;100226.38;10412351;28;20107;-68
2022/11/24 04:32:43;;;;;;;24.08;3.42;;;;;;;7.22;100.00;100230.16;10411007;28;20057;-67
2022/11/24 04:37:44;;;;;;;14.23;3.30;;;;;;;7.11;100.00;100226.31;10412003;28;20049;-70
2022/11/24 04:42:53;;;;;;;22.80;3.30;;;;;;;7.01;100.00;100233.59;10411796;28;20737;-67
2022/11/24 04:47:56;;;;;;;13.95;3.28;;;;;;;6.87;100.00;100237.53;10411653;28;20492;-66
2022/11/24 04:52:58;;;;;;;13.27;3.13;;;;;;;6.81;100.00;100241.19;10409332;28;20107;-67
2022/11/24 04:58:00;;;;;;;11.38;2.35;;;;;;;6.81;100.00;100245.53;10411170;28;20041;-73
2022/11/24 05:03:04;;;;;;;13.25;2.47;;;;;;;6.74;100.00;100247.50;10411820;28;20473;-70
2022/11/24 05:08:07;;;;;;;7.18;1.70;;;;;;;6.65;100.00;100240.91;10411267;28;20101;-67
2022/11/24 05:13:12;;;;;;;14.05;2.63;;;;;;;6.62;100.00;100246.19;10410116;28;20107;-69
2022/11/24 05:18:15;;;;;;;14.52;2.63;;;;;;;6.56;100.00;100249.00;10410921;28;20127;-68
2022/11/24 05:23:17;;;;;;;9.15;2.35;;;;;;;6.60;100.00;100252.34;10408900;28;20067;-67
2022/11/24 05:28:20;;;;;;;10.90;3.00;;;;;;;6.69;100.00;100258.06;10410853;28;20441;-68
2022/11/24 05:33:23;;;;;;;15.30;3.40;;;;;;;6.80;100.00;100261.97;10411130;28;20050;-71
2022/11/24 05:38:25;;;;;;;16.77;3.53;;;;;;;6.83;100.00;100275.72;10410553;28;20041;-67
2022/11/24 05:43:27;;;;;;;13.18;2.95;;;;;;;6.95;100.00;100278.75;10414513;28;20150;-68
2022/11/24 05:48:32;;;;;;;12.23;3.85;;;;;;;7.05;100.00;100284.47;10418505;28;20413;-69
2022/11/24 05:53:33;;;;;;;18.88;3.80;;;;;;;7.06;100.00;100292.19;10416199;28;20148;-67
2022/11/24 05:58:36;;;;;;;20.50;3.65;;;;;;;7.08;100.00;100302.50;10417436;28;20054;-68
2022/11/24 06:03:39;;;;;;;11.63;2.65;;;;;;;7.13;100.00;100313.56;10417370;28;20131;-68
2022/11/24 06:08:41;;;;;;;14.88;3.28;;;;;;;7.15;100.00;100322.13;10418008;28;20115;-70
2022/11/24 06:13:44;;;;;;;12.50;2.90;;;;;;;7.18;100.00;100329.81;10416974;28;20045;-69
2022/11/24 06:18:47;;;;;;;15.60;3.15;;;;;;;7.17;100.00;100338.50;10416552;28;20095;-69
2022/11/24 06:23:49;;;;;;;12.23;2.72;;;;;;;7.13;100.00;100344.72;10414010;28;20049;-68
2022/11/24 06:28:51;;;;;;;12.27;2.47;;;;;;;7.14;100.00;100363.69;10416270;28;20057;-72
2022/11/24 06:33:54;;;;;;;4.32;1.90;;;;;;;7.09;100.00;100363.88;10415929;28;20057;-65
2022/11/24 06:38:55;;;;;;;6.95;1.90;;;;;;;7.12;100.00;100384.50;10416349;28;20075;-69
2022/11/24 06:43:57;;;;;;;3.72;1.73;;;;;;;7.07;100.00;100394.22;10416047;28;20099;-66
2022/11/24 06:49:01;;;;;;;6.55;1.80;;;;;;;7.09;100.00;100410.59;10416496;28;20069;-67
2022/11/24 06:54:07;;;;;;;5.03;1.70;;;;;;;6.98;100.00;100415.31;10412680;28;20485;-67
2022/11/24 06:59:17;;;;;;;5.57;1.60;;;;;;;6.76;100.00;100440.22;10414855;28;20061;-66
2022/11/24 07:04:20;;;;;;;2.63;1.48;;;;;;;6.56;100.00;100439.13;10415437;28;20056;-71
2022/11/24 07:09:21;;;;;;;5.78;1.63;;;;;;;6.51;100.00;100453.13;10414614;28;20413;-69
2022/11/24 07:14:24;;;;;;;11.35;1.70;;;;;;;6.47;100.00;100467.94;10414845;28;20470;-66
2022/11/24 07:19:27;;;;;;;2.47;1.30;;;;;;;6.50;100.00;100485.13;10414300;28;20080;-68
2022/11/24 07:24:31;;;;;;;5.97;1.70;;;;;;;6.61;100.00;100496.03;10411838;28;20053;-69
2022/11/24 07:29:42;;;;;;;4.30;1.27;;;;;;;6.59;100.00;100504.72;10413379;28;20060;-71
2022/11/24 07:34:45;;;;;;;6.77;1.50;;;;;;;6.55;100.00;100507.44;10413007;28;20050;-66
2022/11/24 07:39:48;;;;;;;3.60;1.27;;;;;;;6.43;100.00;100505.19;10414391;28;20425;-68
2022/11/24 07:44:50;;;;;;;6.22;1.70;;;;;;;6.33;100.00;100519.34;10413159;28;20095;-68
2022/11/24 07:49:53;;;;;;;7.30;1.45;;;;;;;6.28;100.00;100519.47;10411123;28;20050;-69
2022/11/24 07:54:55;;;;;;;5.85;1.80;;;;;;;6.32;100.00;100539.22;10413188;28;20046;-68
2022/11/24 07:59:57;;;;;;;2.80;1.43;;;;;;;6.36;100.00;100546.00;10413238;28;20049;-68
2022/11/24 08:05:00;;;;;;;5.97;1.35;;;;;;;6.32;100.00;100557.38;10413070;28;20307;-69
2022/11/24 08:10:01;;;;;;;5.05;1.35;;;;;;;6.36;100.00;100553.78;10412826;28;20045;-68
2022/11/24 08:15:04;;;;;;;5.80;1.52;;;;;;;6.38;100.00;100569.28;10412634;28;20057;-67
2022/11/24 08:20:10;;;;;;;2.60;1.52;;;;;;;6.36;100.00;100579.72;10410008;28;20049;-70
2022/11/24 08:25:14;;;;;;;5.97;2.08;;;;;;;6.41;100.00;100589.94;10410878;28;20447;-68
2022/11/24 08:30:16;;;;;;;7.65;1.90;;;;;;;6.44;100.00;100598.47;10407644;28;20059;-69
2022/11/24 08:35:20;;;;;;;4.68;1.88;;;;;;;6.51;100.00;100593.13;10412677;28;20049;-66
2022/11/24 08:40:22;;;;;;;5.90;1.95;;;;;;;6.60;100.00;100611.00;10411131;28;20045;-67
2022/11/24 08:45:24;;;;;;;4.88;2.05;;;;;;;6.69;100.00;100618.50;10411968;28;20099;-68
2022/11/24 08:50:27;;;;;;;9.52;1.70;;;;;;;6.83;100.00;100638.00;10409881;28;20053;-69
2022/11/24 08:55:30;;;;;;;6.00;1.63;;;;;;;6.94;100.00;100643.72;10411824;28;20474;-69
2022/11/24 09:00:32;;;;;;;7.95;2.40;;;;;;;7.12;100.00;100651.81;10412182;28;20059;-67
2022/11/24 09:05:36;;;;;;;5.03;1.85;;;;;;;7.19;100.00;100658.50;10411707;28;20049;-66
2022/11/24 09:10:38;;;;;;;12.98;2.30;;;;;;;7.28;100.00;100669.50;10411699;28;20049;-69
2022/11/24 09:15:40;;;;;;;9.75;2.47;;;;;;;7.34;100.00;100669.31;10408420;28;20361;-69
2022/11/24 09:20:43;;;;;;;5.45;1.58;;;;;;;7.51;100.00;100671.38;10415631;28;20053;-66
2022/11/24 09:25:46;;;;;;;8.07;2.10;;;;;;;7.55;100.00;100687.69;10419010;28;20063;-69
2022/11/24 09:30:47;;;;;;;12.70;2.67;;;;;;;7.93;100.00;100693.38;10417349;28;20103;-68
2022/11/24 09:35:51;;;;;;;17.33;2.58;;;;;;;8.24;100.00;100696.66;10418749;28;20046;-69
2022/11/24 09:40:53;;;;;;;9.90;2.10;;;;;;;8.74;100.00;100693.19;10418179;28;20041;-66
2022/11/24 09:46:08;;;;;;;9.55;2.85;;;;;;;9.06;100.00;100699.84;10418384;28;20087;-68
2022/11/24 09:51:15;;;;;;;11.63;2.75;;;;;;;9.42;100.00;100707.13;10415640;28;20050;-65
2022/11/24 09:56:23;;;;;;;14.52;2.65;;;;;;;9.90;100.00;100728.66;10417374;28;20045;-66
2022/11/24 10:01:31;;;;;;;11.60;2.72;;;;;;;10.03;100.00;100735.97;10417224;28;20049;-66
2022/11/24 10:06:44;;;;;;;11.75;2.90;;;;;;;9.86;100.00;100726.22;10415097;28;20050;-63
2022/11/24 10:12:00;;;;;;;11.07;3.05;;;;;;;10.17;100.00;100736.22;10417258;28;20072;-65
2022/11/24 10:17:22;;;;;;;8.45;2.60;;;;;;;10.30;100.00;100744.34;10415140;28;20172;-63
2022/11/24 10:22:39;;;;;;;;;;;;;;;10.64;98.25;100749.06;10417481;28;20042;-64
2022/11/24 10:27:46;;;;;;;10.65;2.78;;;;;;;10.04;100.00;100751.53;10418110;28;19921;-64
2022/11/24 10:32:52;;;;;;;7.55;2.72;;;;;;;10.24;100.00;100760.28;10416601;28;20115;-64
2022/11/24 10:38:06;;;;;;;12.93;2.72;;;;;;;10.91;99.86;100772.22;10417574;28;20057;-65
2022/11/24 10:43:11;;;;;;;11.75;2.85;;;;;;;10.35;99.23;100769.41;10418185;28;20061;-67
2022/11/24 10:48:22;;;;;;;10.00;2.60;;;;;;;10.77;97.83;100772.84;10418043;28;20107;-62
2022/11/24 10:53:30;;;;;;;7.13;2.37;;;;;;;10.87;97.37;100770.66;10415389;28;20041;-66
2022/11/24 10:58:36;;;;;;;9.07;2.55;;;;;;;10.58;96.70;100770.22;10417331;28;20091;-65
2022/11/24 11:03:48;;;;;;;8.73;2.53;;;;;;;11.11;96.22;100765.25;10416669;28;20723;-64
2022/11/24 11:09:18;;;;;;;9.88;2.85;;;;;;;11.54;94.70;100759.78;10416837;28;20049;-64
2022/11/24 11:14:32;;;;;;;12.15;2.90;;;;;;;11.18;94.35;100764.06;10416823;28;20057;-64
2022/11/24 11:19:38;;;;;;;12.23;2.97;;;;;;;11.87;91.25;100771.31;10416261;28;20405;-67
2022/11/24 11:24:45;;;;;;;8.40;2.83;;;;;;;11.37;94.68;100757.97;10414744;28;20492;-66
2022/11/24 11:29:49;;;;;;;6.97;2.30;;;;;;;11.22;94.40;100765.59;10415716;28;20111;-64
2022/11/24 11:34:53;;;;;;;9.45;2.50;;;;;;;11.74;91.41;100761.44;10414404;28;20045;-65
2022/11/24 11:39:59;;;;;;;11.75;2.75;;;;;;;12.09;88.89;100771.97;10415992;28;20076;-67
2022/11/24 11:45:05;;;;;;;13.35;2.75;;;;;;;12.04;87.83;100768.69;10418744;28;20440;-66
2022/11/24 11:50:13;;;;;;;11.10;2.85;;;;;;;12.10;93.17;100768.41;10412912;28;20862;-65
2022/11/24 11:55:48;;;;;;;9.25;2.97;;;;;;;12.69;87.26;100761.13;10414896;28;20166;-64
2022/11/24 12:01:04;;;;;;;11.15;2.47;;;;;;;12.20;86.08;100762.72;10414554;28;20072;-67
2022/11/24 12:06:27;;;;;;;16.75;3.00;;;;;;;12.64;87.06;100768.34;10414721;28;20042;-65
2022/11/24 12:11:45;;;;;;;9.65;2.90;;;;;;;11.67;89.01;100765.28;10414245;28;20469;-63
2022/11/24 12:17:02;;;;;;;13.50;3.15;;;;;;;11.51;88.57;100765.16;10414303;28;20049;-67
2022/11/24 12:22:18;;;;;;;11.18;2.72;;;;;;;11.89;92.93;100772.91;10410259;28;20076;-71
2022/11/24 12:27:40;;;;;;;10.48;2.92;;;;;;;11.25;94.26;100770.69;10412190;28;20107;-69
2022/11/24 12:33:11;;;;;;;12.02;2.88;;;;;;;10.85;94.67;100775.13;10412218;28;20069;-70
2022/11/24 12:38:32;;;;;;;13.75;3.03;;;;;;;10.70;97.71;100769.66;10373168;28;20046;-71
2022/11/24 12:43:38;;;;;;;9.02;2.45;;;;;;;11.18;93.11;100770.13;10373107;28;20050;-71
2022/11/24 12:48:52;;;;;;;16.45;3.08;;;;;;;11.79;91.85;100769.91;10373006;28;20119;-71
2022/11/24 12:53:58;;;;;;;13.13;3.15;;;;;;;12.36;89.60;100783.72;10374920;28;20408;-69
2022/11/24 12:59:22;;;;;;;10.95;2.53;;;;;;;12.25;88.65;100781.63;10380956;28;20054;-70
2022/11/24 13:04:37;;;;;;;9.77;2.67;;;;;;;11.87;89.65;100781.75;10381273;28;20127;-71
2022/11/24 13:10:32;;;;;;;12.88;3.15;;;;;;;12.35;86.39;100775.03;10380531;28;20061;-67
2022/11/24 13:16:14;;;;;;;8.57;2.50;;;;;;;12.71;88.33;100775.81;10380468;28;20054;-69
2022/11/24 13:22:05;;;;;;;8.05;2.30;;;;;;;12.42;85.36;100777.34;10377618;28;20042;-69
2022/11/24 13:27:43;;;;;;;7.35;3.00;;;;;;;11.79;88.99;100774.28;10254135;29;20058;-72
2022/11/24 13:32:47;;;;;;;11.63;2.65;;;;;;;11.82;88.84;100779.38;10344609;28;20116;-70
2022/11/24 13:37:51;;;;;;;16.25;2.85;;;;;;;12.05;92.42;100775.59;10419517;28;20049;-70
2022/11/24 13:43:23;;;;;;;12.15;2.47;;;;;;;11.56;91.39;100769.25;10420534;28;20484;-71
2022/11/24 13:49:02;;;;;;;13.50;3.05;;;;;;;11.05;93.37;100769.84;10420619;28;20052;-68
2022/11/24 13:54:10;;;;;;;6.20;2.60;;;;;;;10.64;95.91;100770.78;10417820;28;20107;-69
2022/11/24 13:59:26;;;;;;;6.00;2.50;;;;;;;10.51;96.54;100774.84;10419613;28;20468;-74
2022/11/24 14:04:30;;;;;;;8.80;3.05;;;;;;;10.48;97.54;100765.41;10418918;28;20049;-70
2022/11/24 14:09:40;;;;;;;15.93;2.88;;;;;;;10.45;97.54;100762.91;10417137;28;20065;-71
2022/11/24 14:14:44;;;;;;;14.07;2.50;;;;;;;10.43;98.16;100754.25;10419253;28;20087;-73
2022/11/24 14:19:50;;;;;;;7.82;2.08;;;;;;;10.40;98.65;100747.41;10417316;28;20096;-78
2022/11/24 14:24:55;;;;;;;9.73;2.80;;;;;;;10.26;97.94;100748.00;10418709;28;20073;-72
2022/11/24 14:29:59;;;;;;;14.13;2.88;;;;;;;10.16;100.00;100744.09;10377415;28;20489;-72
2022/11/24 14:35:15;;;;;;;11.18;2.60;;;;;;;10.03;100.00;100744.63;10377482;28;20534;-73
2022/11/24 14:40:39;;;;;;;13.95;3.20;;;;;;;9.92;100.00;100757.25;10377536;28;20050;-68
2022/11/24 14:45:52;;;;;;;13.98;2.70;;;;;;;9.79;100.00;100768.16;10377274;28;20049;-72
2022/11/24 14:51:13;;;;;;;12.85;2.72;;;;;;;9.67;100.00;100768.66;10373454;28;20507;-71
2022/11/24 14:56:25;;;;;;;8.63;3.03;;;;;;;9.60;100.00;100777.63;10375109;28;20097;-69
2022/11/24 15:01:33;;;;;;;6.05;2.03;;;;;;;9.52;100.00;100768.34;10374749;28;20517;-69
2022/11/24 15:06:36;;;;;;;12.98;2.83;;;;;;;9.51;100.00;100779.69;10374785;28;20054;-71
2022/11/24 15:11:38;;;;;;;9.73;2.38;;;;;;;9.36;100.00;100785.50;10374771;28;20381;-71
2022/11/24 15:16:40;;;;;;;9.98;2.70;;;;;;;9.23;100.00;100783.34;10373744;28;20064;-71
2022/11/24 15:21:43;;;;;;;15.73;2.58;;;;;;;9.14;100.00;100791.53;10372096;28;20112;-70
2022/11/24 15:26:46;;;;;;;7.10;2.42;;;;;;;9.01;100.00;100794.56;10374458;28;20056;-74
2022/11/24 15:31:47;;;;;;;11.25;2.75;;;;;;;8.94;100.00;100785.31;10374306;28;20509;-69
2022/11/24 15:36:50;;;;;;;15.23;3.88;;;;;;;8.81;100.00;100784.88;10375475;28;20104;-70
2022/11/24 15:41:53;;;;;;;7.38;2.42;;;;;;;8.67;100.00;100793.19;10376310;28;20050;-70
2022/11/24 15:46:55;;;;;;;10.15;2.90;;;;;;;8.55;100.00;100791.03;10375206;28;20112;-70
2022/11/24 15:51:58;;;;;;;10.98;3.10;;;;;;;8.37;100.00;100796.78;10371589;28;20053;-71
2022/11/24 15:57:00;;;;;;;14.95;2.97;;;;;;;8.45;100.00;100793.06;10372147;28;20057;-70
2022/11/24 16:02:01;;;;;;;15.02;3.38;;;;;;;8.27;100.00;100789.31;10372756;28;20054;-70
2022/11/24 16:07:06;;;;;;;9.55;2.83;;;;;;;8.29;100.00;100787.53;10372444;28;20560;-70
2022/11/24 16:12:08;;;;;;;8.80;2.85;;;;;;;8.24;100.00;100791.13;10372667;28;20050;-71
2022/11/24 16:17:11;;;;;;;9.65;2.60;;;;;;;8.08;100.00;100795.13;10372499;28;20068;-70
2022/11/24 16:22:13;;;;;;;9.82;3.08;;;;;;;8.16;100.00;100793.13;10369910;28;20050;-70
2022/11/24 16:27:16;;;;;;;12.73;2.55;;;;;;;8.05;100.00;100784.84;10372197;28;20049;-71
2022/11/24 16:32:18;;;;;;;11.13;2.95;;;;;;;7.93;100.00;100792.13;10370193;28;20042;-69
2022/11/24 16:37:22;;;;;;;13.05;3.10;;;;;;;7.82;100.00;100789.88;10369857;28;20057;-69
2022/11/24 16:42:24;;;;;;;13.07;2.83;;;;;;;7.77;100.00;100793.53;10371184;28;20053;-69
2022/11/24 16:47:27;;;;;;;10.20;2.97;;;;;;;7.87;100.00;100794.91;10371590;28;20203;-69
2022/11/24 16:52:30;;;;;;;10.48;3.03;;;;;;;7.83;100.00;100790.72;10369619;28;20057;-70
2022/11/24 16:57:32;;;;;;;9.80;2.95;;;;;;;7.75;100.00;100787.50;10371163;28;20112;-69
2022/11/24 17:02:34;;;;;;;10.85;3.45;;;;;;;7.78;100.00;100780.50;10371515;28;20077;-70
2022/11/24 17:07:37;;;;;;;9.73;3.40;;;;;;;7.76;100.00;100790.06;10371122;28;20060;-70
2022/11/24 17:12:39;;;;;;;8.95;2.55;;;;;;;7.70;100.00;100785.09;10371051;28;20070;-70
2022/11/24 17:17:43;;;;;;;14.73;3.03;;;;;;;7.72;100.00;100797.13;10371306;28;20056;-71
2022/11/24 17:22:46;;;;;;;13.35;3.05;;;;;;;7.77;100.00;100802.16;10368440;28;20069;-75
2022/11/24 17:27:49;;;;;;;9.10;3.15;;;;;;;7.70;100.00;100806.69;10370595;28;20053;-71
2022/11/24 17:32:50;;;;;;;8.98;3.45;;;;;;;7.69;100.00;100809.34;10370597;28;20386;-71
2022/11/24 17:37:55;;;;;;;12.48;3.08;;;;;;;7.60;100.00;100813.09;10371466;28;20118;-68
2022/11/24 17:42:59;;;;;;;14.27;3.17;;;;;;;7.61;100.00;100809.59;10377933;28;20065;-67
2022/11/24 17:48:00;;;;;;;11.27;3.92;;;;;;;7.62;100.00;100806.09;10377824;28;20489;-68
2022/11/24 17:53:03;;;;;;;14.93;4.82;;;;;;;7.53;100.00;100812.41;10375432;28;20102;-70
2022/11/24 17:58:05;;;;;;;14.13;5.80;;;;;;;7.47;100.00;100808.22;10377416;28;20100;-67
2022/11/24 18:03:06;;;;;;;8.32;2.95;;;;;;;7.43;100.00;100804.03;10377119;28;20402;-68
2022/11/24 18:08:11;;;;;;;14.85;3.63;;;;;;;7.32;100.00;100790.50;10377029;28;20089;-71
2022/11/24 18:13:13;;;;;;;14.82;4.60;;;;;;;7.15;100.00;100791.88;10394170;28;20049;-67
2022/11/24 18:18:16;;;;;;;8.63;3.22;;;;;;;7.10;100.00;100788.56;10417570;28;20053;-68
2022/11/24 18:23:19;;;;;;;11.95;3.72;;;;;;;7.07;100.00;100783.47;10415558;28;20050;-69
2022/11/24 18:28:22;;;;;;;13.00;3.85;;;;;;;6.96;100.00;100794.16;10417313;28;20057;-67
2022/11/24 18:33:23;;;;;;;19.00;4.07;;;;;;;6.99;100.00;100795.81;10417022;28;20477;-72
2022/11/24 18:38:27;;;;;;;8.80;2.95;;;;;;;7.06;100.00;100785.22;10416750;28;20057;-67
2022/11/24 18:43:30;;;;;;;13.20;3.90;;;;;;;6.98;100.00;100788.91;10416586;28;20056;-66
2022/11/24 18:48:32;;;;;;;10.57;3.83;;;;;;;6.88;100.00;100785.72;10416528;28;20068;-66
2022/11/24 18:53:35;;;;;;;9.13;3.50;;;;;;;6.99;100.00;100781.09;10414536;28;20096;-67
2022/11/24 18:58:36;;;;;;;15.02;4.35;;;;;;;6.83;100.00;100772.88;10413397;28;20111;-66
2022/11/24 19:03:41;;;;;;;14.40;3.83;;;;;;;6.78;100.00;100779.94;10413572;28;20123;-66
2022/11/24 19:08:44;;;;;;;10.50;3.13;;;;;;;6.69;100.00;100781.03;10415843;28;20059;-65
2022/11/24 19:13:48;;;;;;;13.57;3.10;;;;;;;6.90;100.00;100776.16;10383680;28;20050;-62
2022/11/24 19:18:51;;;;;;;11.88;3.45;;;;;;;6.91;100.00;100776.09;10395095;28;20078;-67
2022/11/24 19:23:54;;;;;;;12.30;3.30;;;;;;;6.81;100.00;100782.47;10412315;28;20060;-65
2022/11/24 19:28:56;;;;;;;5.60;2.75;;;;;;;6.79;100.00;100766.06;10414489;28;20060;-64
2022/11/24 19:33:58;;;;;;;15.52;3.38;;;;;;;6.69;100.00;100768.94;10414037;28;20053;-65
2022/11/24 19:39:03;;;;;;;11.13;3.33;;;;;;;6.70;100.00;100773.22;10413844;28;20438;-65
2022/11/24 19:44:05;;;;;;;9.82;2.60;;;;;;;6.77;100.00;100775.66;10413877;28;20084;-67
2022/11/24 19:49:08;;;;;;;16.55;3.13;;;;;;;6.65;100.00;100772.50;10413851;28;20064;-64
2022/11/24 19:54:12;;;;;;;13.07;2.80;;;;;;;6.62;100.00;100780.38;10409987;28;20341;-68
2022/11/24 19:59:14;;;;;;;6.15;2.92;;;;;;;6.64;100.00;100770.78;10410783;28;20057;-66
2022/11/24 20:04:19;;;;;;;7.80;2.47;;;;;;;6.67;100.00;100762.09;10408384;28;20150;-65
2022/11/24 20:09:22;;;;;;;4.03;1.60;;;;;;;6.67;100.00;100762.94;10411619;28;20057;-66
2022/11/24 20:14:24;;;;;;;6.72;2.83;;;;;;;6.73;100.00;100774.88;10409861;28;20482;-66
2022/11/24 20:19:25;;;;;;;11.30;2.92;;;;;;;6.80;100.00;100755.66;10409729;28;20084;-67
2022/11/24 20:24:28;;;;;;;7.13;2.92;;;;;;;6.85;100.00;100765.06;10407328;28;20137;-66
2022/11/24 20:29:32;;;;;;;6.30;2.83;;;;;;;6.92;100.00;100757.03;10412191;28;20045;-65
2022/11/24 20:34:34;;;;;;;12.68;2.92;;;;;;;7.05;100.00;100767.94;10413333;28;20064;-64
2022/11/24 20:39:37;;;;;;;13.57;3.28;;;;;;;7.21;100.00;100765.75;10413445;28;20092;-65
2022/11/24 20:44:39;;;;;;;13.52;3.25;;;;;;;7.38;100.00;100763.53;10411690;28;20080;-64
2022/11/24 20:49:40;;;;;;;8.10;2.85;;;;;;;7.38;100.00;100759.19;10411243;28;20057;-67
2022/11/24 20:54:46;;;;;;;8.40;1.88;;;;;;;7.32;100.00;100756.78;10408815;28;20053;-67
2022/11/24 20:59:48;;;;;;;5.60;2.53;;;;;;;7.33;100.00;100750.69;10411365;28;20042;-65
2022/11/24 21:04:49;;;;;;;;;;;;;;;7.42;100.00;100749.53;10411611;28;20060;-65
2022/11/24 21:09:52;;;;;;;12.35;2.65;;;;;;;7.54;100.00;100745.75;10410789;28;19925;-69
2022/11/24 21:14:56;;;;;;;6.93;2.58;;;;;;;7.54;100.00;100745.75;10415175;28;20049;-64
2022/11/24 21:19:57;;;;;;;11.80;2.58;;;;;;;7.63;100.00;100742.84;10416748;28;20050;-66
2022/11/24 21:25:00;;;;;;;7.72;2.22;;;;;;;7.58;100.00;100747.34;10418617;28;20045;-71
2022/11/24 21:30:02;;;;;;;13.10;3.25;;;;;;;7.62;100.00;100740.31;10418004;28;20099;-65
2022/11/24 21:35:06;;;;;;;11.48;2.70;;;;;;;7.62;100.00;100741.16;10417858;28;20096;-65
2022/11/24 21:40:10;;;;;;;13.13;2.90;;;;;;;7.68;100.00;100740.97;10417564;28;20080;-65
2022/11/24 21:45:12;;;;;;;13.63;2.80;;;;;;;7.68;100.00;100735.78;10418285;28;20064;-65
2022/11/24 21:50:13;;;;;;;7.78;2.72;;;;;;;7.62;100.00;100729.94;10415327;28;20125;-65
2022/11/24 21:55:17;;;;;;;11.32;3.53;;;;;;;7.60;100.00;100720.41;10417367;28;20489;-65
2022/11/24 22:00:20;;;;;;;17.90;2.72;;;;;;;7.79;100.00;100713.78;10417624;28;20049;-65
2022/11/24 22:05:22;;;;;;;9.23;2.45;;;;;;;7.69;100.00;100700.22;10417217;28;20056;-67
2022/11/24 22:10:25;;;;;;;11.73;2.30;;;;;;;7.72;100.00;100695.81;10417950;28;20096;-64
2022/11/24 22:15:27;;;;;;;11.68;2.45;;;;;;;7.73;100.00;100689.69;10418732;28;20104;-65
2022/11/24 22:20:29;;;;;;;16.98;2.88;;;;;;;7.82;100.00;100695.50;10415116;28;20468;-65
2022/11/24 22:25:33;;;;;;;11.82;2.55;;;;;;;7.95;100.00;100691.59;10416011;28;20122;-66
2022/11/24 22:30:35;;;;;;;10.48;3.13;;;;;;;8.01;100.00;100687.09;10417093;28;20050;-67
2022/11/24 22:35:38;;;;;;;6.35;2.72;;;;;;;7.93;100.00;100689.94;10416068;28;20106;-66
2022/11/24 22:40:41;;;;;;;13.43;3.08;;;;;;;8.21;100.00;100682.03;10415560;28;20053;-66
2022/11/24 22:45:42;;;;;;;9.65;2.78;;;;;;;8.30;100.00;100680.88;10415746;28;20495;-64
2022/11/24 22:50:44;;;;;;;15.88;2.45;;;;;;;8.35;100.00;100676.34;10413704;28;20054;-69
2022/11/24 22:55:47;;;;;;;9.57;2.30;;;;;;;8.44;100.00;100664.78;10415254;28;20053;-65
2022/11/24 23:00:49;;;;;;;10.00;2.83;;;;;;;8.61;100.00;100677.19;10414694;28;20046;-66
2022/11/24 23:05:50;;;;;;;10.77;2.30;;;;;;;8.67;100.00;100670.91;10414686;28;20049;-65
2022/11/24 23:10:59;;;;;;;13.13;2.80;;;;;;;8.75;100.00;100676.69;10416256;28;20112;-64
2022/11/24 23:16:02;;;;;;;13.00;2.60;;;;;;;8.75;100.00;100675.81;10415471;28;20053;-66
2022/11/24 23:21:07;;;;;;;8.10;2.40;;;;;;;8.67;100.00;100668.31;10413889;28;20501;-64